createdAt,value
2023-02-05T00:01:29.655Z,24.75
2023-02-05T00:03:58.079Z,27.17
2023-02-05T00:06:26.941Z,26.13
2023-02-05T00:08:54.295Z,27.15
2023-02-05T00:11:21.182Z,25.92
2023-02-05T00:13:49.305Z,26.08
2023-02-05T00:16:19.652Z,26.38
2023-02-05T00:18:47.260Z,26.75
2023-02-05T00:21:15.942Z,25.55
2023-02-05T00:23:49.720Z,28.98
2023-02-05T00:26:16.981Z,25.75
2023-02-05T00:28:44.592Z,25.17
2023-02-05T00:31:19.732Z,24.08
2023-02-05T00:33:48.568Z,25.27
2023-02-05T00:36:16.532Z,24.90
2023-02-05T00:38:44.527Z,25.23
2023-02-05T00:41:12.245Z,23.88
2023-02-05T00:43:41.350Z,23.70
2023-02-05T00:46:09.352Z,24.55
2023-02-05T00:48:36.515Z,22.63
2023-02-05T00:51:08.276Z,22.00
2023-02-05T00:53:38.715Z,23.70
2023-02-05T00:56:06.052Z,21.63
2023-02-05T00:58:33.300Z,22.83
2023-02-05T01:01:00.435Z,23.48
2023-02-05T01:03:42.679Z,23.27
2023-02-05T01:06:10.010Z,22.75
2023-02-05T01:08:37.057Z,22.55
2023-02-05T01:11:11.283Z,23.65
2023-02-05T01:13:39.229Z,22.25
2023-02-05T01:16:06.710Z,22.42
2023-02-05T01:18:33.923Z,20.95
2023-02-05T01:21:00.774Z,22.35
2023-02-05T01:23:27.685Z,21.58
2023-02-05T01:25:55.701Z,20.75
2023-02-05T01:28:22.770Z,20.98
2023-02-05T01:30:51.164Z,20.52
2023-02-05T01:33:19.496Z,21.42
2023-02-05T01:35:46.565Z,20.80
2023-02-05T01:38:18.648Z,21.65
2023-02-05T01:40:46.678Z,20.55
2023-02-05T01:43:16.322Z,21.23
2023-02-05T01:46:10.535Z,23.40
2023-02-05T01:48:42.573Z,21.80
2023-02-05T01:51:12.988Z,22.48
2023-02-05T01:53:41.660Z,22.13
2023-02-05T01:56:14.227Z,22.50
2023-02-05T02:01:10.777Z,19.75
2023-02-05T02:03:38.933Z,21.17
2023-02-05T02:06:06.317Z,20.50
2023-02-05T02:08:33.658Z,20.48
2023-02-05T02:11:04.941Z,19.30
2023-02-05T02:13:36.893Z,17.85
2023-02-05T02:16:08.310Z,16.42
2023-02-05T02:18:38.290Z,14.90
2023-02-05T02:21:30.971Z,14.07
2023-02-05T02:24:21.061Z,15.38
2023-02-05T02:27:11.364Z,13.32
2023-02-05T02:29:46.304Z,13.30
2023-02-05T02:32:21.252Z,12.65
2023-02-05T02:35:19.274Z,12.00
2023-02-05T02:38:10.967Z,11.45
2023-02-05T02:40:48.949Z,11.23
2023-02-05T02:43:27.960Z,10.25
2023-02-05T02:46:12.128Z,9.57
2023-02-05T02:48:42.602Z,9.23
2023-02-05T02:51:15.853Z,8.98
2023-02-05T02:53:51.250Z,8.30
2023-02-05T02:56:20.326Z,7.93
2023-02-05T02:58:56.434Z,7.82
2023-02-05T03:01:27.812Z,7.53
2023-02-05T03:04:03.952Z,7.00
2023-02-05T03:06:34.664Z,7.13
2023-02-05T03:09:05.398Z,7.15
2023-02-05T03:11:33.892Z,6.93
2023-02-05T03:14:04.679Z,6.32
2023-02-05T03:16:44.980Z,6.72
2023-02-05T03:19:12.326Z,6.20
2023-02-05T03:21:48.122Z,5.78
2023-02-05T03:24:43.019Z,5.80
2023-02-05T03:27:12.291Z,4.72
2023-02-05T03:29:46.978Z,5.20
2023-02-05T03:32:39.059Z,4.65
2023-02-05T03:35:32.016Z,4.80
2023-02-05T03:38:23.230Z,5.18
2023-02-05T03:41:00.383Z,5.07
2023-02-05T03:44:19.335Z,5.10
2023-02-05T03:47:01.112Z,4.38
2023-02-05T03:49:41.004Z,4.82
2023-02-05T03:52:25.765Z,5.20
2023-02-05T03:54:58.781Z,5.13
2023-02-05T03:57:55.931Z,4.70
2023-02-05T04:00:27.187Z,4.70
2023-02-05T04:02:55.481Z,5.53
2023-02-05T04:05:27.711Z,5.97
2023-02-05T04:08:01.523Z,5.30
2023-02-05T04:10:33.856Z,5.65
2023-02-05T04:13:05.651Z,5.63
2023-02-05T04:15:35.914Z,6.18
2023-02-05T04:18:08.215Z,6.68
2023-02-05T04:20:35.422Z,6.57
2023-02-05T04:23:04.586Z,6.90
2023-02-05T04:25:33.663Z,6.78
2023-02-05T04:28:05.926Z,6.47
2023-02-05T04:30:34.574Z,6.65
2023-02-05T04:33:03.076Z,7.00
2023-02-05T04:35:31.007Z,7.38
2023-02-05T04:37:58.336Z,8.25
2023-02-05T04:40:27.952Z,7.82
2023-02-05T04:42:56.019Z,8.50
2023-02-05T04:45:23.070Z,8.50
2023-02-05T04:47:51.064Z,8.95
2023-02-05T04:50:20.826Z,8.90
2023-02-05T04:52:48.029Z,9.35
2023-02-05T04:55:15.007Z,10.25
2023-02-05T04:57:42.051Z,10.10
2023-02-05T05:00:10.289Z,10.18
2023-02-05T05:02:37.255Z,11.00
2023-02-05T05:05:05.579Z,10.25
2023-02-05T05:07:33.885Z,11.27
2023-02-05T05:10:00.818Z,12.70
2023-02-05T05:12:27.734Z,12.57
2023-02-05T05:14:55.889Z,13.85
2023-02-05T05:17:22.911Z,14.93
2023-02-05T05:19:49.846Z,17.23
2023-02-05T05:22:20.430Z,18.05
2023-02-05T05:24:48.757Z,19.13
2023-02-05T05:27:16.771Z,19.88
2023-02-05T05:29:44.133Z,20.95
2023-02-05T05:32:12.991Z,22.63
2023-02-05T05:34:39.978Z,21.92
2023-02-05T05:37:08.190Z,20.15
2023-02-05T05:39:53.539Z,22.92
2023-02-05T05:42:39.582Z,24.02
2023-02-05T05:45:08.137Z,23.42
2023-02-05T05:47:35.078Z,24.95
2023-02-05T05:50:03.630Z,25.65
2023-02-05T05:52:34.306Z,25.08
2023-02-05T05:55:01.303Z,23.38
2023-02-05T05:57:29.311Z,25.02
2023-02-05T05:59:56.416Z,28.98
2023-02-05T06:06:45.922Z,24.95
2023-02-05T06:09:13.271Z,27.08
2023-02-05T06:11:40.216Z,25.52
2023-02-05T06:14:08.862Z,31.15
2023-02-05T06:16:35.789Z,30.33
2023-02-05T06:19:02.881Z,31.20
2023-02-05T06:21:32.393Z,31.27
2023-02-05T06:23:59.512Z,32.50
2023-02-05T06:26:27.434Z,30.33
2023-02-05T06:28:57.259Z,31.73
2023-02-05T06:31:25.434Z,31.35
2023-02-05T06:33:52.789Z,27.20
2023-02-05T06:36:19.706Z,30.42
2023-02-05T06:38:47.665Z,27.83
2023-02-05T06:41:14.725Z,25.73
2023-02-05T06:43:41.908Z,17.83
2023-02-05T06:46:13.091Z,16.73
2023-02-05T06:48:41.941Z,13.45
2023-02-05T06:51:09.904Z,10.25
2023-02-05T06:53:36.990Z,7.57
2023-02-05T06:56:04.460Z,4.65
2023-02-05T06:58:31.445Z,4.22
2023-02-05T07:00:58.842Z,3.08
2023-02-05T07:03:28.119Z,2.20
2023-02-05T07:05:55.151Z,2.97
2023-02-05T07:08:22.529Z,3.55
2023-02-05T07:10:50.466Z,2.33
2023-02-05T07:13:17.822Z,3.40
2023-02-05T07:15:44.801Z,3.15
2023-02-05T07:18:13.781Z,3.10
2023-02-05T07:20:42.774Z,3.03
2023-02-05T07:23:10.813Z,3.47
2023-02-05T07:25:39.128Z,3.88
2023-02-05T07:28:08.799Z,3.10
2023-02-05T07:30:36.788Z,3.42
2023-02-05T07:33:04.770Z,3.33
2023-02-05T07:35:37.415Z,3.00
2023-02-05T07:38:05.336Z,2.42
2023-02-05T07:40:32.512Z,1.80
2023-02-05T07:43:00.778Z,1.98
2023-02-05T07:45:27.625Z,2.40
2023-02-05T07:47:57.658Z,2.00
2023-02-05T07:50:24.489Z,2.50
2023-02-05T07:52:51.328Z,3.25
2023-02-05T07:55:18.324Z,2.90
2023-02-05T07:57:46.854Z,2.67
2023-02-05T08:00:15.102Z,2.88
2023-02-05T08:02:42.059Z,2.67
2023-02-05T08:05:09.165Z,2.60
2023-02-05T08:07:37.457Z,2.63
2023-02-05T08:10:05.050Z,2.80
2023-02-05T08:12:32.006Z,2.72
2023-02-05T08:14:58.966Z,3.30
2023-02-05T08:17:25.884Z,3.05
2023-02-05T08:19:52.754Z,2.67
2023-02-05T08:22:19.697Z,2.80
2023-02-05T08:24:49.383Z,3.10
2023-02-05T08:27:16.354Z,2.10
2023-02-05T08:29:43.347Z,2.80
2023-02-05T08:32:10.227Z,3.00
2023-02-05T08:34:39.141Z,2.42
2023-02-05T08:37:07.409Z,2.10
2023-02-05T08:39:35.628Z,2.58
2023-02-05T08:42:02.819Z,2.47
2023-02-05T08:44:29.885Z,2.60
2023-02-05T08:47:08.308Z,2.15
2023-02-05T08:49:37.516Z,2.67
2023-02-05T08:52:05.556Z,2.60
2023-02-05T08:54:32.501Z,2.40
2023-02-05T08:57:02.367Z,4.25
2023-02-05T08:59:29.343Z,2.72
2023-02-05T09:01:56.447Z,2.92
2023-02-05T09:04:27.647Z,2.70
2023-02-05T09:06:55.731Z,2.42
2023-02-05T09:09:25.341Z,3.33
2023-02-05T09:11:53.475Z,4.22
2023-02-05T09:14:20.288Z,2.90
2023-02-05T09:16:47.268Z,2.50
2023-02-05T09:19:14.250Z,2.90
2023-02-05T09:21:43.157Z,3.08
2023-02-05T09:24:11.240Z,3.03
2023-02-05T09:26:38.216Z,3.05
2023-02-05T09:29:05.077Z,3.35
2023-02-05T09:31:32.298Z,2.90
2023-02-05T09:34:04.554Z,3.58
2023-02-05T09:36:41.613Z,2.90
2023-02-05T09:39:18.502Z,2.58
2023-02-05T09:42:11.365Z,1.85
2023-02-05T09:45:03.961Z,3.42
2023-02-05T09:47:59.138Z,2.30
2023-02-05T09:50:29.822Z,2.20
2023-02-05T09:53:06.463Z,2.95
2023-02-05T09:55:38.976Z,3.88
2023-02-05T09:58:18.617Z,2.72
2023-02-05T10:01:04.266Z,3.50
2023-02-05T10:03:50.187Z,3.97
2023-02-05T10:06:21.467Z,2.97
2023-02-05T10:11:30.704Z,3.22
2023-02-05T10:14:16.263Z,3.33
2023-02-05T10:17:12.974Z,3.67
2023-02-05T10:19:57.409Z,3.58
2023-02-05T10:22:43.336Z,3.75
2023-02-05T10:25:45.265Z,3.92
2023-02-05T10:28:31.735Z,3.95
2023-02-05T10:31:10.965Z,4.35
2023-02-05T10:33:49.122Z,4.20
2023-02-05T10:36:21.941Z,4.60
2023-02-05T10:38:53.714Z,4.75
2023-02-05T10:41:39.218Z,4.20
2023-02-05T10:44:18.473Z,3.80
2023-02-05T10:46:53.022Z,3.40
2023-02-05T10:49:45.605Z,4.35
2023-02-05T10:52:17.831Z,4.60
2023-02-05T10:54:46.694Z,5.35
2023-02-05T10:57:22.500Z,3.53
2023-02-05T10:59:59.553Z,4.03
2023-02-05T11:02:38.518Z,4.53
2023-02-05T11:05:14.419Z,3.28
2023-02-05T11:07:46.570Z,4.35
2023-02-05T11:12:57.549Z,4.35
2023-02-05T11:15:29.654Z,3.55
2023-02-05T11:18:23.368Z,4.18
2023-02-05T11:21:03.885Z,3.50
2023-02-05T11:23:33.259Z,4.18
2023-02-05T11:26:18.329Z,4.43
2023-02-05T11:28:46.776Z,4.30
2023-02-05T11:31:32.172Z,3.47
2023-02-05T11:34:12.125Z,4.15
2023-02-05T11:36:58.232Z,4.05
2023-02-05T11:39:37.149Z,4.20
2023-02-05T11:42:31.327Z,3.92
2023-02-05T11:45:01.969Z,4.80
2023-02-05T11:47:34.868Z,3.75
2023-02-05T11:50:06.863Z,4.25
2023-02-05T11:52:37.591Z,4.18
2023-02-05T11:55:06.392Z,4.70
2023-02-05T11:57:39.193Z,4.15
2023-02-05T12:00:09.018Z,4.22
2023-02-05T12:02:37.912Z,4.78
2023-02-05T12:05:17.058Z,4.82
2023-02-05T12:07:55.661Z,4.25
2023-02-05T12:10:38.446Z,3.92
2023-02-05T12:18:37.411Z,4.43
2023-02-05T12:21:22.666Z,3.85
2023-02-05T12:24:28.236Z,4.50
2023-02-05T12:27:07.477Z,3.80
2023-02-05T12:30:10.182Z,3.83
2023-02-05T12:33:11.408Z,3.58
2023-02-05T12:35:38.381Z,3.70
2023-02-05T12:38:32.480Z,3.47
2023-02-05T12:41:24.198Z,3.05
2023-02-05T12:43:56.912Z,3.25
2023-02-05T12:47:15.163Z,3.60
2023-02-05T12:50:40.141Z,3.25
2023-02-05T12:53:28.659Z,3.47
2023-02-05T12:56:35.058Z,3.42
2023-02-05T12:59:41.067Z,3.92
2023-02-05T13:02:31.040Z,3.80
2023-02-05T13:05:16.261Z,3.65
2023-02-05T13:07:59.900Z,3.63
2023-02-05T13:10:53.662Z,3.80
2023-02-05T13:13:29.298Z,4.32
2023-02-05T13:16:03.017Z,3.80
2023-02-05T13:18:38.279Z,3.70
2023-02-05T13:21:36.865Z,3.30
2023-02-05T13:24:43.881Z,2.75
2023-02-05T13:27:45.640Z,4.03
2023-02-05T13:30:22.628Z,3.15
2023-02-05T13:32:54.919Z,3.85
2023-02-05T13:35:25.728Z,3.78
2023-02-05T13:38:45.957Z,3.53
2023-02-05T13:41:41.703Z,3.50
2023-02-05T13:44:50.889Z,3.50
2023-02-05T13:47:59.096Z,3.53
2023-02-05T13:50:49.613Z,3.58
2023-02-05T13:53:55.107Z,3.90
2023-02-05T13:56:32.600Z,4.03
2023-02-05T13:59:37.957Z,3.60
2023-02-05T14:02:23.231Z,2.45
2023-02-05T14:04:54.309Z,4.45
2023-02-05T14:07:27.703Z,3.60
2023-02-05T14:10:03.252Z,3.40
2023-02-05T14:12:41.778Z,3.13
2023-02-05T14:15:17.417Z,3.10
2023-02-05T14:17:49.221Z,3.47
2023-02-05T14:20:33.329Z,3.60
2023-02-05T14:23:02.950Z,4.40
2023-02-05T14:25:37.398Z,3.40
2023-02-05T14:28:08.153Z,4.05
2023-02-05T14:30:48.016Z,3.85
2023-02-05T14:33:38.596Z,4.03
2023-02-05T14:36:22.893Z,4.95
2023-02-05T14:39:21.870Z,3.55
2023-02-05T14:41:58.977Z,3.75
2023-02-05T14:44:34.947Z,4.20
2023-02-05T14:47:06.822Z,3.45
2023-02-05T14:49:33.826Z,4.03
2023-02-05T14:52:26.390Z,3.10
2023-02-05T14:55:17.435Z,4.25
2023-02-05T15:00:46.119Z,3.25
2023-02-05T15:03:17.829Z,3.25
2023-02-05T15:05:44.932Z,3.95
2023-02-05T15:08:15.785Z,4.45
2023-02-05T15:10:54.969Z,4.38
2023-02-05T15:13:25.415Z,4.30
2023-02-05T15:16:18.673Z,3.95
2023-02-05T15:18:59.857Z,4.10
2023-02-05T15:21:52.149Z,4.72
2023-02-05T15:24:28.240Z,4.50
2023-02-05T15:27:14.898Z,4.47
2023-02-05T15:29:47.699Z,4.22
2023-02-05T15:32:22.994Z,4.20
2023-02-05T15:35:00.706Z,4.80
2023-02-05T15:37:32.941Z,4.00
2023-02-05T15:40:24.901Z,4.40
2023-02-05T15:43:01.890Z,4.35
2023-02-05T15:45:37.087Z,4.03
2023-02-05T15:48:11.446Z,4.93
2023-02-05T15:50:48.735Z,3.78
2023-02-05T15:53:32.180Z,4.50
2023-02-05T15:56:08.415Z,3.85
2023-02-05T15:58:37.642Z,4.28
2023-02-05T16:01:05.255Z,4.03
2023-02-05T16:03:36.246Z,4.70
2023-02-05T16:06:22.456Z,4.90
2023-02-05T16:08:52.964Z,4.10
2023-02-05T16:11:33.504Z,4.25
2023-02-05T16:14:13.689Z,4.90
2023-02-05T16:17:18.383Z,4.30
2023-02-05T16:20:07.394Z,4.85
2023-02-05T16:22:58.731Z,4.25
2023-02-05T16:25:41.833Z,5.78
2023-02-05T16:28:24.369Z,4.97
2023-02-05T16:30:56.503Z,6.07
2023-02-05T16:33:36.113Z,4.82
2023-02-05T16:36:19.554Z,5.60
2023-02-05T16:39:01.500Z,5.10
2023-02-05T16:41:40.661Z,5.03
2023-02-05T16:44:27.101Z,4.32
2023-02-05T16:47:21.572Z,4.65
2023-02-05T16:49:49.564Z,5.50
2023-02-05T16:52:43.030Z,5.38
2023-02-05T16:55:16.199Z,4.63
2023-02-05T16:57:47.508Z,5.40
2023-02-05T17:00:25.943Z,6.30
2023-02-05T17:03:02.918Z,6.85
2023-02-05T17:05:37.064Z,5.53
2023-02-05T17:11:03.515Z,5.70
2023-02-05T17:13:39.090Z,5.28
2023-02-05T17:17:12.791Z,4.70
2023-02-05T17:20:29.811Z,5.18
2023-02-05T17:23:09.845Z,5.72
2023-02-05T17:26:12.401Z,6.47
2023-02-05T17:28:44.491Z,6.93
2023-02-05T17:31:13.804Z,4.72
2023-02-05T17:33:50.929Z,5.10
2023-02-05T17:36:23.970Z,5.20
2023-02-05T17:38:55.956Z,6.82
2023-02-05T17:41:47.672Z,7.20
2023-02-05T17:44:24.900Z,4.45
2023-02-05T17:46:54.676Z,6.07
2023-02-05T17:49:22.157Z,5.70
2023-02-05T17:51:50.090Z,5.38
2023-02-05T17:54:22.192Z,4.85
2023-02-05T17:56:51.580Z,5.78
2023-02-05T18:02:25.101Z,6.63
2023-02-05T18:04:57.662Z,5.72
2023-02-05T18:10:07.872Z,7.15
2023-02-05T18:12:35.968Z,6.13
2023-02-05T18:15:04.438Z,6.32
2023-02-05T18:17:37.750Z,7.03
2023-02-05T18:20:06.049Z,7.28
2023-02-05T18:22:35.486Z,5.95
2023-02-05T18:25:07.353Z,6.88
2023-02-05T18:33:28.800Z,5.63
2023-02-05T18:36:11.513Z,5.55
2023-02-05T18:41:22.567Z,5.30
2023-02-05T18:43:56.339Z,5.70
2023-02-05T18:46:25.890Z,5.47
2023-02-05T18:49:05.573Z,5.43
2023-02-05T18:51:44.178Z,5.40
2023-02-05T18:56:55.120Z,5.25
2023-02-05T18:59:26.213Z,6.25
2023-02-05T19:01:56.623Z,6.50
2023-02-05T19:04:28.031Z,8.52
2023-02-05T19:12:20.970Z,7.40
2023-02-05T19:14:50.630Z,6.55
2023-02-05T19:17:24.332Z,7.15
2023-02-05T19:19:55.836Z,7.20
2023-02-05T19:22:26.606Z,6.65
2023-02-05T19:24:54.016Z,7.10
2023-02-05T19:27:21.254Z,6.60
2023-02-05T19:29:48.504Z,7.53
2023-02-05T19:32:15.610Z,7.20
2023-02-05T19:34:43.561Z,6.75
2023-02-05T19:37:13.569Z,6.65
2023-02-05T19:39:51.169Z,8.38
2023-02-05T19:42:23.121Z,7.45
2023-02-05T19:44:52.071Z,8.85
2023-02-05T19:47:26.153Z,7.55
2023-02-05T19:49:54.292Z,8.20
2023-02-05T19:52:21.285Z,7.07
2023-02-05T19:54:48.431Z,6.32
2023-02-05T19:57:20.335Z,6.55
2023-02-05T19:59:48.614Z,8.02
2023-02-05T20:02:19.334Z,7.65
2023-02-05T20:04:47.582Z,7.90
2023-02-05T20:07:15.562Z,7.22
2023-02-05T20:09:42.623Z,7.22
2023-02-05T20:12:13.022Z,6.65
2023-02-05T20:14:40.184Z,7.05
2023-02-05T20:17:09.295Z,8.05
2023-02-05T20:19:38.741Z,6.03
2023-02-05T20:22:07.416Z,8.27
2023-02-05T20:24:35.642Z,12.90
2023-02-05T20:27:04.138Z,7.47
2023-02-05T20:32:37.155Z,7.43
2023-02-05T20:35:04.977Z,7.80
2023-02-05T20:37:45.006Z,6.60
2023-02-05T20:40:15.653Z,10.65
2023-02-05T20:42:47.911Z,10.48
2023-02-05T20:45:16.435Z,7.38
2023-02-05T20:47:43.466Z,6.38
2023-02-05T20:50:14.301Z,6.47
2023-02-05T20:52:43.965Z,5.72
2023-02-05T20:55:37.735Z,9.63
2023-02-05T21:01:18.192Z,7.53
2023-02-05T21:03:57.956Z,7.07
2023-02-05T21:06:29.444Z,5.43
2023-02-05T21:08:57.291Z,7.10
2023-02-05T21:11:28.428Z,6.65
2023-02-05T21:14:05.110Z,12.35
2023-02-05T21:16:37.086Z,5.53
2023-02-05T21:19:09.770Z,7.83
2023-02-05T21:21:37.956Z,6.43
2023-02-05T21:24:16.758Z,6.55
2023-02-05T21:26:48.370Z,8.00
2023-02-05T21:29:18.052Z,6.55
2023-02-05T21:31:48.946Z,6.07
2023-02-05T21:34:22.577Z,6.07
2023-02-05T21:36:51.058Z,7.32
2023-02-05T21:39:22.920Z,7.30
2023-02-05T21:41:54.314Z,6.35
2023-02-05T21:44:23.039Z,6.68
2023-02-05T21:46:53.470Z,6.40
2023-02-05T21:49:21.485Z,6.15
2023-02-05T21:51:50.467Z,5.78
2023-02-05T21:54:41.652Z,6.50
2023-02-05T21:57:29.588Z,6.13
2023-02-05T22:04:29.080Z,6.35
2023-02-05T22:06:56.188Z,5.65
2023-02-05T22:09:27.116Z,7.68
2023-02-05T22:12:03.961Z,7.43
2023-02-05T22:14:36.325Z,5.75
2023-02-05T22:17:05.032Z,6.82
2023-02-05T22:19:32.262Z,6.13
2023-02-05T22:22:00.356Z,6.35
2023-02-05T22:24:34.588Z,5.75
2023-02-05T22:27:06.902Z,6.03
2023-02-05T22:29:37.810Z,6.30
2023-02-05T22:32:07.957Z,6.20
2023-02-05T22:34:43.479Z,6.18
2023-02-05T22:39:56.144Z,5.78
2023-02-05T22:42:35.862Z,6.68
2023-02-05T22:45:08.953Z,5.80
2023-02-05T22:47:42.348Z,5.60
2023-02-05T22:50:16.533Z,5.93
2023-02-05T22:52:45.599Z,6.07
2023-02-05T22:58:04.188Z,5.97
2023-02-05T23:00:33.570Z,6.60
2023-02-05T23:03:04.794Z,7.25
2023-02-05T23:05:42.377Z,5.88
2023-02-05T23:08:12.588Z,5.60
2023-02-05T23:10:43.119Z,6.13
2023-02-05T23:13:16.476Z,5.82
2023-02-05T23:20:25.199Z,7.45
2023-02-05T23:25:50.233Z,5.70
2023-02-05T23:28:24.908Z,5.40
2023-02-05T23:30:55.704Z,5.57
2023-02-05T23:33:25.434Z,5.80
2023-02-05T23:35:52.749Z,5.82
2023-02-05T23:38:21.039Z,5.47
2023-02-05T23:40:49.548Z,6.05
2023-02-05T23:43:20.547Z,6.75
2023-02-05T23:48:46.425Z,6.90
2023-02-05T23:55:42.133Z,5.28
2023-02-05T23:58:10.814Z,6.65
